sensor_id;sensor_type;location;lat;lon;timestamp;P1;durP1;ratioP1;P2;durP2;ratioP2
40150;SDS011;25866;52.420;10.640;2023-07-20T00:00:12;1.35;;;0.90;;
40150;SDS011;25866;52.420;10.640;2023-07-20T00:02:39;3.58;;;1.00;;
40150;SDS011;25866;52.420;10.640;2023-07-20T00:05:05;1.25;;;0.80;;
40150;SDS011;25866;52.420;10.640;2023-07-20T00:07:31;0.95;;;0.80;;
40150;SDS011;25866;52.420;10.640;2023-07-20T00:09:56;2.03;;;0.85;;
40150;SDS011;25866;52.420;10.640;2023-07-20T00:12:22;1.58;;;0.98;;
40150;SDS011;25866;52.420;10.640;2023-07-20T00:14:48;0.95;;;0.73;;
40150;SDS011;25866;52.420;10.640;2023-07-20T00:17:14;2.35;;;0.90;;
40150;SDS011;25866;52.420;10.640;2023-07-20T00:19:39;2.42;;;1.00;;
40150;SDS011;25866;52.420;10.640;2023-07-20T00:22:05;1.27;;;0.85;;
40150;SDS011;25866;52.420;10.640;2023-07-20T00:24:31;2.58;;;0.93;;
40150;SDS011;25866;52.420;10.640;2023-07-20T00:26:57;1.42;;;0.90;;
40150;SDS011;25866;52.420;10.640;2023-07-20T00:29:23;2.30;;;1.10;;
40150;SDS011;25866;52.420;10.640;2023-07-20T00:31:49;3.40;;;0.85;;
40150;SDS011;25866;52.420;10.640;2023-07-20T00:34:15;1.52;;;0.80;;
40150;SDS011;25866;52.420;10.640;2023-07-20T00:36:41;1.08;;;0.80;;
40150;SDS011;25866;52.420;10.640;2023-07-20T00:39:07;1.67;;;1.00;;
40150;SDS011;25866;52.420;10.640;2023-07-20T00:44:08;4.10;;;1.00;;
40150;SDS011;25866;52.420;10.640;2023-07-20T00:46:34;2.28;;;0.90;;
40150;SDS011;25866;52.420;10.640;2023-07-20T00:49:00;1.38;;;0.88;;
40150;SDS011;25866;52.420;10.640;2023-07-20T00:51:26;3.15;;;0.88;;
40150;SDS011;25866;52.420;10.640;2023-07-20T00:53:54;1.20;;;1.00;;
40150;SDS011;25866;52.420;10.640;2023-07-20T00:56:20;4.38;;;1.00;;
40150;SDS011;25866;52.420;10.640;2023-07-20T00:58:47;1.02;;;0.90;;
40150;SDS011;25866;52.420;10.640;2023-07-20T01:01:13;1.42;;;1.00;;
40150;SDS011;25866;52.420;10.640;2023-07-20T01:03:39;1.13;;;0.80;;
40150;SDS011;25866;52.420;10.640;2023-07-20T01:08:56;1.42;;;0.90;;
40150;SDS011;25866;52.420;10.640;2023-07-20T01:11:36;1.35;;;0.98;;
40150;SDS011;25866;52.420;10.640;2023-07-20T01:14:05;0.88;;;0.88;;
40150;SDS011;25866;52.420;10.640;2023-07-20T01:16:32;1.02;;;0.93;;
40150;SDS011;25866;52.420;10.640;2023-07-20T01:18:58;1.52;;;0.90;;
40150;SDS011;25866;52.420;10.640;2023-07-20T01:21:26;1.30;;;0.90;;
40150;SDS011;25866;52.420;10.640;2023-07-20T01:24:11;1.20;;;0.98;;
40150;SDS011;25866;52.420;10.640;2023-07-20T01:27:16;1.13;;;0.98;;
40150;SDS011;25866;52.420;10.640;2023-07-20T01:32:52;3.05;;;1.00;;
40150;SDS011;25866;52.420;10.640;2023-07-20T01:35:23;1.10;;;0.90;;
40150;SDS011;25866;52.420;10.640;2023-07-20T01:37:54;1.15;;;0.85;;
40150;SDS011;25866;52.420;10.640;2023-07-20T01:40:20;1.23;;;0.88;;
40150;SDS011;25866;52.420;10.640;2023-07-20T01:42:48;1.00;;;0.90;;
40150;SDS011;25866;52.420;10.640;2023-07-20T01:45:14;1.10;;;1.00;;
40150;SDS011;25866;52.420;10.640;2023-07-20T01:47:40;2.47;;;0.90;;
40150;SDS011;25866;52.420;10.640;2023-07-20T01:50:06;1.55;;;1.10;;
40150;SDS011;25866;52.420;10.640;2023-07-20T01:52:32;1.63;;;1.10;;
40150;SDS011;25866;52.420;10.640;2023-07-20T01:54:57;0.95;;;0.88;;
40150;SDS011;25866;52.420;10.640;2023-07-20T01:57:23;2.70;;;1.13;;
40150;SDS011;25866;52.420;10.640;2023-07-20T01:59:49;1.48;;;1.10;;
40150;SDS011;25866;52.420;10.640;2023-07-20T02:02:15;1.75;;;1.08;;
40150;SDS011;25866;52.420;10.640;2023-07-20T02:04:40;2.15;;;1.25;;
40150;SDS011;25866;52.420;10.640;2023-07-20T02:07:06;1.80;;;1.00;;
40150;SDS011;25866;52.420;10.640;2023-07-20T02:09:32;1.23;;;1.00;;
40150;SDS011;25866;52.420;10.640;2023-07-20T02:11:57;1.20;;;1.10;;
40150;SDS011;25866;52.420;10.640;2023-07-20T02:14:23;1.02;;;1.00;;
40150;SDS011;25866;52.420;10.640;2023-07-20T02:16:49;2.38;;;1.20;;
40150;SDS011;25866;52.420;10.640;2023-07-20T02:19:19;1.63;;;1.00;;
40150;SDS011;25866;52.420;10.640;2023-07-20T02:21:45;1.20;;;1.05;;
40150;SDS011;25866;52.420;10.640;2023-07-20T02:24:11;1.77;;;1.17;;
40150;SDS011;25866;52.420;10.640;2023-07-20T02:26:39;1.17;;;0.77;;
40150;SDS011;25866;52.420;10.640;2023-07-20T02:29:05;2.47;;;1.15;;
40150;SDS011;25866;52.420;10.640;2023-07-20T02:31:30;1.23;;;1.13;;
40150;SDS011;25866;52.420;10.640;2023-07-20T02:33:56;2.33;;;1.10;;
40150;SDS011;25866;52.420;10.640;2023-07-20T02:36:23;0.93;;;0.90;;
40150;SDS011;25866;52.420;10.640;2023-07-20T02:38:49;2.00;;;0.93;;
40150;SDS011;25866;52.420;10.640;2023-07-20T02:41:14;2.65;;;1.20;;
40150;SDS011;25866;52.420;10.640;2023-07-20T02:43:40;1.50;;;0.98;;
40150;SDS011;25866;52.420;10.640;2023-07-20T02:46:08;1.08;;;0.98;;
40150;SDS011;25866;52.420;10.640;2023-07-20T02:48:33;1.70;;;1.20;;
40150;SDS011;25866;52.420;10.640;2023-07-20T02:51:00;0.85;;;0.82;;
40150;SDS011;25866;52.420;10.640;2023-07-20T02:53:25;1.13;;;1.00;;
40150;SDS011;25866;52.420;10.640;2023-07-20T02:58:20;0.93;;;0.80;;
40150;SDS011;25866;52.420;10.640;2023-07-20T03:00:45;2.08;;;1.00;;
40150;SDS011;25866;52.420;10.640;2023-07-20T03:03:11;2.15;;;1.05;;
40150;SDS011;25866;52.420;10.640;2023-07-20T03:05:40;2.03;;;0.90;;
40150;SDS011;25866;52.420;10.640;2023-07-20T03:08:06;1.75;;;0.93;;
40150;SDS011;25866;52.420;10.640;2023-07-20T03:10:32;1.75;;;1.00;;
40150;SDS011;25866;52.420;10.640;2023-07-20T03:13:03;2.45;;;0.98;;
40150;SDS011;25866;52.420;10.640;2023-07-20T03:15:29;2.40;;;0.90;;
40150;SDS011;25866;52.420;10.640;2023-07-20T03:17:56;1.27;;;0.82;;
40150;SDS011;25866;52.420;10.640;2023-07-20T03:20:24;2.80;;;1.10;;
40150;SDS011;25866;52.420;10.640;2023-07-20T03:22:49;1.42;;;0.80;;
40150;SDS011;25866;52.420;10.640;2023-07-20T03:25:24;1.63;;;0.88;;
40150;SDS011;25866;52.420;10.640;2023-07-20T03:27:50;1.33;;;0.70;;
40150;SDS011;25866;52.420;10.640;2023-07-20T03:30:16;1.48;;;0.80;;
40150;SDS011;25866;52.420;10.640;2023-07-20T03:32:41;2.25;;;0.80;;
40150;SDS011;25866;52.420;10.640;2023-07-20T03:35:07;1.30;;;1.00;;
40150;SDS011;25866;52.420;10.640;2023-07-20T03:37:33;1.95;;;0.82;;
40150;SDS011;25866;52.420;10.640;2023-07-20T03:40:00;1.20;;;0.93;;
40150;SDS011;25866;52.420;10.640;2023-07-20T03:42:28;2.88;;;0.95;;
40150;SDS011;25866;52.420;10.640;2023-07-20T03:44:53;1.58;;;1.00;;
40150;SDS011;25866;52.420;10.640;2023-07-20T03:47:22;0.77;;;0.77;;
40150;SDS011;25866;52.420;10.640;2023-07-20T03:49:49;2.33;;;0.98;;
40150;SDS011;25866;52.420;10.640;2023-07-20T03:52:15;2.38;;;1.05;;
40150;SDS011;25866;52.420;10.640;2023-07-20T03:54:40;1.38;;;1.00;;
40150;SDS011;25866;52.420;10.640;2023-07-20T03:57:08;2.63;;;1.00;;
40150;SDS011;25866;52.420;10.640;2023-07-20T03:59:36;1.20;;;0.82;;
40150;SDS011;25866;52.420;10.640;2023-07-20T04:02:03;1.52;;;0.95;;
40150;SDS011;25866;52.420;10.640;2023-07-20T04:04:30;1.05;;;0.95;;
40150;SDS011;25866;52.420;10.640;2023-07-20T04:09:26;1.27;;;0.77;;
40150;SDS011;25866;52.420;10.640;2023-07-20T04:11:51;1.25;;;1.00;;
40150;SDS011;25866;52.420;10.640;2023-07-20T04:14:17;1.50;;;0.95;;
40150;SDS011;25866;52.420;10.640;2023-07-20T04:16:46;2.55;;;0.85;;
40150;SDS011;25866;52.420;10.640;2023-07-20T04:19:12;0.80;;;0.80;;
40150;SDS011;25866;52.420;10.640;2023-07-20T04:21:41;2.90;;;1.00;;
40150;SDS011;25866;52.420;10.640;2023-07-20T04:24:07;1.63;;;0.90;;
40150;SDS011;25866;52.420;10.640;2023-07-20T04:26:33;1.15;;;0.82;;
40150;SDS011;25866;52.420;10.640;2023-07-20T04:29:00;2.15;;;1.10;;
40150;SDS011;25866;52.420;10.640;2023-07-20T04:31:26;1.40;;;1.00;;
40150;SDS011;25866;52.420;10.640;2023-07-20T04:33:52;4.30;;;0.80;;
40150;SDS011;25866;52.420;10.640;2023-07-20T04:36:17;3.05;;;1.00;;
40150;SDS011;25866;52.420;10.640;2023-07-20T04:38:47;3.15;;;1.05;;
40150;SDS011;25866;52.420;10.640;2023-07-20T04:41:13;2.75;;;0.88;;
40150;SDS011;25866;52.420;10.640;2023-07-20T04:43:43;1.25;;;0.95;;
40150;SDS011;25866;52.420;10.640;2023-07-20T04:46:13;1.13;;;0.90;;
40150;SDS011;25866;52.420;10.640;2023-07-20T04:48:39;2.00;;;0.90;;
40150;SDS011;25866;52.420;10.640;2023-07-20T04:51:05;1.30;;;0.95;;
40150;SDS011;25866;52.420;10.640;2023-07-20T04:53:31;0.85;;;0.77;;
40150;SDS011;25866;52.420;10.640;2023-07-20T04:55:57;1.08;;;0.70;;
40150;SDS011;25866;52.420;10.640;2023-07-20T04:58:22;1.98;;;0.93;;
40150;SDS011;25866;52.420;10.640;2023-07-20T05:00:49;1.67;;;1.00;;
40150;SDS011;25866;52.420;10.640;2023-07-20T05:03:16;1.67;;;0.90;;
40150;SDS011;25866;52.420;10.640;2023-07-20T05:05:42;1.05;;;0.90;;
40150;SDS011;25866;52.420;10.640;2023-07-20T05:10:43;1.38;;;1.10;;
40150;SDS011;25866;52.420;10.640;2023-07-20T05:13:08;0.73;;;0.70;;
40150;SDS011;25866;52.420;10.640;2023-07-20T05:15:34;2.00;;;1.05;;
40150;SDS011;25866;52.420;10.640;2023-07-20T05:18:00;2.45;;;0.93;;
40150;SDS011;25866;52.420;10.640;2023-07-20T05:20:26;1.40;;;0.80;;
40150;SDS011;25866;52.420;10.640;2023-07-20T05:22:52;1.35;;;1.05;;
40150;SDS011;25866;52.420;10.640;2023-07-20T05:25:18;1.48;;;0.90;;
40150;SDS011;25866;52.420;10.640;2023-07-20T05:27:44;1.65;;;1.15;;
40150;SDS011;25866;52.420;10.640;2023-07-20T05:30:11;0.90;;;0.90;;
40150;SDS011;25866;52.420;10.640;2023-07-20T05:32:37;3.97;;;0.98;;
40150;SDS011;25866;52.420;10.640;2023-07-20T05:35:03;1.27;;;0.90;;
40150;SDS011;25866;52.420;10.640;2023-07-20T05:37:30;1.35;;;0.77;;
40150;SDS011;25866;52.420;10.640;2023-07-20T05:39:56;1.00;;;0.90;;
40150;SDS011;25866;52.420;10.640;2023-07-20T05:42:22;3.00;;;1.00;;
40150;SDS011;25866;52.420;10.640;2023-07-20T05:44:48;1.80;;;0.90;;
40150;SDS011;25866;52.420;10.640;2023-07-20T05:47:19;2.22;;;1.00;;
40150;SDS011;25866;52.420;10.640;2023-07-20T05:49:44;1.15;;;0.77;;
40150;SDS011;25866;52.420;10.640;2023-07-20T05:52:10;2.35;;;1.23;;
40150;SDS011;25866;52.420;10.640;2023-07-20T05:54:36;0.68;;;0.68;;
40150;SDS011;25866;52.420;10.640;2023-07-20T05:59:30;1.63;;;0.80;;
40150;SDS011;25866;52.420;10.640;2023-07-20T06:01:56;3.20;;;1.10;;
40150;SDS011;25866;52.420;10.640;2023-07-20T06:04:22;3.63;;;1.30;;
40150;SDS011;25866;52.420;10.640;2023-07-20T06:06:49;2.72;;;1.23;;
40150;SDS011;25866;52.420;10.640;2023-07-20T06:09:15;3.55;;;0.90;;
40150;SDS011;25866;52.420;10.640;2023-07-20T06:11:40;2.20;;;1.05;;
40150;SDS011;25866;52.420;10.640;2023-07-20T06:14:06;3.33;;;0.95;;
40150;SDS011;25866;52.420;10.640;2023-07-20T06:16:32;2.90;;;1.20;;
40150;SDS011;25866;52.420;10.640;2023-07-20T06:19:00;2.83;;;1.30;;
40150;SDS011;25866;52.420;10.640;2023-07-20T06:21:25;3.10;;;1.30;;
40150;SDS011;25866;52.420;10.640;2023-07-20T06:23:51;1.83;;;1.20;;
40150;SDS011;25866;52.420;10.640;2023-07-20T06:26:17;2.13;;;1.40;;
40150;SDS011;25866;52.420;10.640;2023-07-20T06:28:44;3.53;;;1.52;;
40150;SDS011;25866;52.420;10.640;2023-07-20T06:31:09;1.92;;;1.50;;
40150;SDS011;25866;52.420;10.640;2023-07-20T06:33:35;2.95;;;1.58;;
40150;SDS011;25866;52.420;10.640;2023-07-20T06:36:01;2.50;;;1.77;;
40150;SDS011;25866;52.420;10.640;2023-07-20T06:38:28;4.05;;;1.77;;
40150;SDS011;25866;52.420;10.640;2023-07-20T06:40:54;2.50;;;1.45;;
40150;SDS011;25866;52.420;10.640;2023-07-20T06:43:20;2.53;;;0.98;;
40150;SDS011;25866;52.420;10.640;2023-07-20T06:45:50;1.00;;;0.90;;
40150;SDS011;25866;52.420;10.640;2023-07-20T06:48:21;1.40;;;0.60;;
40150;SDS011;25866;52.420;10.640;2023-07-20T06:50:47;3.58;;;0.60;;
40150;SDS011;25866;52.420;10.640;2023-07-20T06:53:13;1.35;;;0.80;;
40150;SDS011;25866;52.420;10.640;2023-07-20T06:55:38;2.20;;;0.65;;
40150;SDS011;25866;52.420;10.640;2023-07-20T06:58:09;1.40;;;0.57;;
40150;SDS011;25866;52.420;10.640;2023-07-20T07:00:37;0.73;;;0.60;;
40150;SDS011;25866;52.420;10.640;2023-07-20T07:03:07;2.05;;;0.60;;
40150;SDS011;25866;52.420;10.640;2023-07-20T07:05:35;0.85;;;0.68;;
40150;SDS011;25866;52.420;10.640;2023-07-20T07:08:04;1.63;;;0.50;;
40150;SDS011;25866;52.420;10.640;2023-07-20T07:10:30;1.05;;;0.57;;
40150;SDS011;25866;52.420;10.640;2023-07-20T07:12:56;0.82;;;0.55;;
40150;SDS011;25866;52.420;10.640;2023-07-20T07:15:22;0.47;;;0.43;;
40150;SDS011;25866;52.420;10.640;2023-07-20T07:17:47;1.27;;;0.50;;
40150;SDS011;25866;52.420;10.640;2023-07-20T07:20:13;1.23;;;0.50;;
40150;SDS011;25866;52.420;10.640;2023-07-20T07:22:39;1.17;;;0.70;;
40150;SDS011;25866;52.420;10.640;2023-07-20T07:25:05;0.90;;;0.52;;
40150;SDS011;25866;52.420;10.640;2023-07-20T07:27:32;0.55;;;0.45;;
40150;SDS011;25866;52.420;10.640;2023-07-20T07:30:02;0.50;;;0.40;;
40150;SDS011;25866;52.420;10.640;2023-07-20T07:32:28;0.75;;;0.40;;
40150;SDS011;25866;52.420;10.640;2023-07-20T07:34:54;0.57;;;0.40;;
40150;SDS011;25866;52.420;10.640;2023-07-20T07:37:20;0.50;;;0.40;;
40150;SDS011;25866;52.420;10.640;2023-07-20T07:39:46;0.90;;;0.40;;
40150;SDS011;25866;52.420;10.640;2023-07-20T07:42:12;1.05;;;0.50;;
40150;SDS011;25866;52.420;10.640;2023-07-20T07:44:38;0.90;;;0.40;;
40150;SDS011;25866;52.420;10.640;2023-07-20T07:47:04;0.80;;;0.47;;
40150;SDS011;25866;52.420;10.640;2023-07-20T07:49:30;1.33;;;0.50;;
40150;SDS011;25866;52.420;10.640;2023-07-20T07:51:56;0.45;;;0.40;;
40150;SDS011;25866;52.420;10.640;2023-07-20T07:54:22;1.10;;;0.30;;
40150;SDS011;25866;52.420;10.640;2023-07-20T07:56:48;0.50;;;0.40;;
40150;SDS011;25866;52.420;10.640;2023-07-20T07:59:14;2.97;;;0.50;;
40150;SDS011;25866;52.420;10.640;2023-07-20T08:01:40;0.47;;;0.30;;
40150;SDS011;25866;52.420;10.640;2023-07-20T08:04:06;3.03;;;0.45;;
40150;SDS011;25866;52.420;10.640;2023-07-20T08:06:32;2.10;;;0.60;;
40150;SDS011;25866;52.420;10.640;2023-07-20T08:08:59;3.17;;;0.60;;
40150;SDS011;25866;52.420;10.640;2023-07-20T08:11:24;0.80;;;0.40;;
40150;SDS011;25866;52.420;10.640;2023-07-20T08:13:50;1.90;;;0.40;;
40150;SDS011;25866;52.420;10.640;2023-07-20T08:16:16;0.93;;;0.40;;
40150;SDS011;25866;52.420;10.640;2023-07-20T08:18:42;0.63;;;0.50;;
40150;SDS011;25866;52.420;10.640;2023-07-20T08:21:08;0.88;;;0.50;;
40150;SDS011;25866;52.420;10.640;2023-07-20T08:23:34;0.93;;;0.50;;
40150;SDS011;25866;52.420;10.640;2023-07-20T08:26:00;1.00;;;0.55;;
40150;SDS011;25866;52.420;10.640;2023-07-20T08:28:28;1.13;;;0.40;;
40150;SDS011;25866;52.420;10.640;2023-07-20T08:30:54;0.50;;;0.40;;
40150;SDS011;25866;52.420;10.640;2023-07-20T08:33:20;0.73;;;0.40;;
40150;SDS011;25866;52.420;10.640;2023-07-20T08:35:46;1.52;;;0.57;;
40150;SDS011;25866;52.420;10.640;2023-07-20T08:38:12;2.65;;;0.65;;
40150;SDS011;25866;52.420;10.640;2023-07-20T08:40:41;1.70;;;0.50;;
40150;SDS011;25866;52.420;10.640;2023-07-20T08:43:08;1.10;;;0.47;;
40150;SDS011;25866;52.420;10.640;2023-07-20T08:45:36;0.85;;;0.55;;
40150;SDS011;25866;52.420;10.640;2023-07-20T08:48:05;0.95;;;0.55;;
40150;SDS011;25866;52.420;10.640;2023-07-20T08:50:31;1.23;;;0.65;;
40150;SDS011;25866;52.420;10.640;2023-07-20T08:52:59;1.10;;;0.60;;
40150;SDS011;25866;52.420;10.640;2023-07-20T08:55:26;2.95;;;0.50;;
40150;SDS011;25866;52.420;10.640;2023-07-20T08:57:56;1.13;;;0.70;;
40150;SDS011;25866;52.420;10.640;2023-07-20T09:00:34;0.50;;;0.45;;
40150;SDS011;25866;52.420;10.640;2023-07-20T09:03:00;1.20;;;0.60;;
40150;SDS011;25866;52.420;10.640;2023-07-20T09:05:28;1.50;;;0.50;;
40150;SDS011;25866;52.420;10.640;2023-07-20T09:07:55;1.38;;;0.50;;
40150;SDS011;25866;52.420;10.640;2023-07-20T09:10:23;1.25;;;0.50;;
40150;SDS011;25866;52.420;10.640;2023-07-20T09:12:49;1.33;;;0.55;;
40150;SDS011;25866;52.420;10.640;2023-07-20T09:15:18;1.38;;;0.57;;
40150;SDS011;25866;52.420;10.640;2023-07-20T09:17:45;2.55;;;0.73;;
40150;SDS011;25866;52.420;10.640;2023-07-20T09:20:16;1.75;;;0.52;;
40150;SDS011;25866;52.420;10.640;2023-07-20T09:22:43;1.00;;;0.55;;
40150;SDS011;25866;52.420;10.640;2023-07-20T09:25:13;1.00;;;0.43;;
40150;SDS011;25866;52.420;10.640;2023-07-20T09:27:43;0.45;;;0.40;;
40150;SDS011;25866;52.420;10.640;2023-07-20T09:30:14;0.98;;;0.40;;
40150;SDS011;25866;52.420;10.640;2023-07-20T09:35:17;1.30;;;0.70;;
40150;SDS011;25866;52.420;10.640;2023-07-20T09:37:59;0.85;;;0.50;;
40150;SDS011;25866;52.420;10.640;2023-07-20T09:40:27;1.02;;;0.50;;
40150;SDS011;25866;52.420;10.640;2023-07-20T09:42:54;1.10;;;0.47;;
40150;SDS011;25866;52.420;10.640;2023-07-20T09:45:50;1.75;;;0.55;;
40150;SDS011;25866;52.420;10.640;2023-07-20T09:48:15;0.40;;;0.40;;
40150;SDS011;25866;52.420;10.640;2023-07-20T09:50:43;1.17;;;0.50;;
40150;SDS011;25866;52.420;10.640;2023-07-20T09:53:14;0.95;;;0.47;;
40150;SDS011;25866;52.420;10.640;2023-07-20T09:55:43;1.48;;;0.43;;
40150;SDS011;25866;52.420;10.640;2023-07-20T09:58:10;0.50;;;0.30;;
40150;SDS011;25866;52.420;10.640;2023-07-20T10:00:36;0.52;;;0.30;;
40150;SDS011;25866;52.420;10.640;2023-07-20T10:03:04;0.65;;;0.40;;
40150;SDS011;25866;52.420;10.640;2023-07-20T10:05:34;0.70;;;0.40;;
40150;SDS011;25866;52.420;10.640;2023-07-20T10:08:02;0.88;;;0.50;;
40150;SDS011;25866;52.420;10.640;2023-07-20T10:10:31;1.35;;;0.60;;
40150;SDS011;25866;52.420;10.640;2023-07-20T10:12:58;0.52;;;0.40;;
40150;SDS011;25866;52.420;10.640;2023-07-20T10:15:33;0.65;;;0.50;;
40150;SDS011;25866;52.420;10.640;2023-07-20T10:18:14;1.02;;;0.50;;
40150;SDS011;25866;52.420;10.640;2023-07-20T10:23:19;1.08;;;0.52;;
40150;SDS011;25866;52.420;10.640;2023-07-20T10:25:45;0.68;;;0.40;;
40150;SDS011;25866;52.420;10.640;2023-07-20T10:28:11;1.40;;;0.52;;
40150;SDS011;25866;52.420;10.640;2023-07-20T10:30:39;0.80;;;0.40;;
40150;SDS011;25866;52.420;10.640;2023-07-20T10:33:06;1.08;;;0.52;;
40150;SDS011;25866;52.420;10.640;2023-07-20T10:38:52;1.15;;;0.60;;
40150;SDS011;25866;52.420;10.640;2023-07-20T10:44:07;1.10;;;0.45;;
40150;SDS011;25866;52.420;10.640;2023-07-20T10:49:05;0.85;;;0.50;;
40150;SDS011;25866;52.420;10.640;2023-07-20T10:51:42;0.70;;;0.40;;
40150;SDS011;25866;52.420;10.640;2023-07-20T10:56:44;1.52;;;0.50;;
40150;SDS011;25866;52.420;10.640;2023-07-20T10:59:19;1.55;;;0.55;;
40150;SDS011;25866;52.420;10.640;2023-07-20T11:02:05;0.70;;;0.60;;
40150;SDS011;25866;52.420;10.640;2023-07-20T11:04:42;2.20;;;0.63;;
40150;SDS011;25866;52.420;10.640;2023-07-20T11:07:09;3.67;;;0.60;;
40150;SDS011;25866;52.420;10.640;2023-07-20T11:09:38;0.73;;;0.35;;
40150;SDS011;25866;52.420;10.640;2023-07-20T11:12:13;1.73;;;0.52;;
40150;SDS011;25866;52.420;10.640;2023-07-20T11:14:53;1.27;;;0.60;;
40150;SDS011;25866;52.420;10.640;2023-07-20T11:17:30;2.38;;;0.55;;
40150;SDS011;25866;52.420;10.640;2023-07-20T11:19:57;0.95;;;0.45;;
40150;SDS011;25866;52.420;10.640;2023-07-20T11:24:57;0.95;;;0.60;;
40150;SDS011;25866;52.420;10.640;2023-07-20T11:27:23;1.35;;;0.50;;
40150;SDS011;25866;52.420;10.640;2023-07-20T11:29:49;3.03;;;0.60;;
40150;SDS011;25866;52.420;10.640;2023-07-20T11:32:22;1.10;;;0.50;;
40150;SDS011;25866;52.420;10.640;2023-07-20T11:34:49;1.73;;;0.60;;
40150;SDS011;25866;52.420;10.640;2023-07-20T11:37:16;2.15;;;0.63;;
40150;SDS011;25866;52.420;10.640;2023-07-20T11:39:43;2.33;;;0.50;;
40150;SDS011;25866;52.420;10.640;2023-07-20T11:42:11;3.83;;;0.40;;
40150;SDS011;25866;52.420;10.640;2023-07-20T11:44:37;1.40;;;0.60;;
40150;SDS011;25866;52.420;10.640;2023-07-20T11:47:10;2.22;;;0.60;;
40150;SDS011;25866;52.420;10.640;2023-07-20T11:52:06;0.60;;;0.40;;
40150;SDS011;25866;52.420;10.640;2023-07-20T11:54:35;0.65;;;0.55;;
40150;SDS011;25866;52.420;10.640;2023-07-20T11:57:02;0.80;;;0.60;;
40150;SDS011;25866;52.420;10.640;2023-07-20T11:59:28;2.17;;;0.60;;
40150;SDS011;25866;52.420;10.640;2023-07-20T12:01:54;1.08;;;0.50;;
40150;SDS011;25866;52.420;10.640;2023-07-20T12:04:22;2.78;;;0.60;;
40150;SDS011;25866;52.420;10.640;2023-07-20T12:06:48;1.95;;;0.52;;
40150;SDS011;25866;52.420;10.640;2023-07-20T12:09:14;4.00;;;0.60;;
40150;SDS011;25866;52.420;10.640;2023-07-20T12:11:44;1.15;;;0.57;;
40150;SDS011;25866;52.420;10.640;2023-07-20T12:14:12;1.98;;;0.40;;
40150;SDS011;25866;52.420;10.640;2023-07-20T12:16:38;1.35;;;0.68;;
40150;SDS011;25866;52.420;10.640;2023-07-20T12:19:05;2.17;;;0.57;;
40150;SDS011;25866;52.420;10.640;2023-07-20T12:21:35;3.17;;;0.60;;
40150;SDS011;25866;52.420;10.640;2023-07-20T12:24:02;1.92;;;0.52;;
40150;SDS011;25866;52.420;10.640;2023-07-20T12:26:29;1.85;;;0.52;;
40150;SDS011;25866;52.420;10.640;2023-07-20T12:28:56;0.93;;;0.63;;
40150;SDS011;25866;52.420;10.640;2023-07-20T12:31:23;1.70;;;0.63;;
40150;SDS011;25866;52.420;10.640;2023-07-20T12:33:50;1.45;;;0.70;;
40150;SDS011;25866;52.420;10.640;2023-07-20T12:36:16;1.38;;;0.50;;
40150;SDS011;25866;52.420;10.640;2023-07-20T12:38:43;1.65;;;0.50;;
40150;SDS011;25866;52.420;10.640;2023-07-20T12:41:10;1.55;;;0.60;;
40150;SDS011;25866;52.420;10.640;2023-07-20T12:43:38;2.42;;;0.70;;
40150;SDS011;25866;52.420;10.640;2023-07-20T12:46:05;0.57;;;0.52;;
40150;SDS011;25866;52.420;10.640;2023-07-20T12:48:31;2.78;;;0.60;;
40150;SDS011;25866;52.420;10.640;2023-07-20T12:50:57;4.20;;;0.85;;
40150;SDS011;25866;52.420;10.640;2023-07-20T12:53:25;0.95;;;0.60;;
40150;SDS011;25866;52.420;10.640;2023-07-20T12:55:51;0.77;;;0.55;;
40150;SDS011;25866;52.420;10.640;2023-07-20T12:58:16;0.90;;;0.70;;
40150;SDS011;25866;52.420;10.640;2023-07-20T13:00:43;0.70;;;0.50;;
40150;SDS011;25866;52.420;10.640;2023-07-20T13:03:09;1.65;;;0.50;;
40150;SDS011;25866;52.420;10.640;2023-07-20T13:05:35;1.58;;;0.80;;
40150;SDS011;25866;52.420;10.640;2023-07-20T13:08:01;1.52;;;0.70;;
40150;SDS011;25866;52.420;10.640;2023-07-20T13:10:27;1.23;;;0.90;;
40150;SDS011;25866;52.420;10.640;2023-07-20T13:12:54;1.33;;;0.60;;
40150;SDS011;25866;52.420;10.640;2023-07-20T13:15:20;1.30;;;0.70;;
40150;SDS011;25866;52.420;10.640;2023-07-20T13:17:46;1.77;;;0.60;;
40150;SDS011;25866;52.420;10.640;2023-07-20T13:20:12;0.75;;;0.50;;
40150;SDS011;25866;52.420;10.640;2023-07-20T13:22:39;1.23;;;0.52;;
40150;SDS011;25866;52.420;10.640;2023-07-20T13:25:05;1.48;;;0.68;;
40150;SDS011;25866;52.420;10.640;2023-07-20T13:27:32;1.75;;;0.45;;
40150;SDS011;25866;52.420;10.640;2023-07-20T13:29:59;1.35;;;0.60;;
40150;SDS011;25866;52.420;10.640;2023-07-20T13:32:27;1.42;;;0.40;;
40150;SDS011;25866;52.420;10.640;2023-07-20T13:34:53;1.25;;;0.55;;
40150;SDS011;25866;52.420;10.640;2023-07-20T13:37:19;1.08;;;0.47;;
40150;SDS011;25866;52.420;10.640;2023-07-20T13:39:44;0.40;;;0.32;;
40150;SDS011;25866;52.420;10.640;2023-07-20T13:42:11;0.85;;;0.50;;
40150;SDS011;25866;52.420;10.640;2023-07-20T13:44:37;1.10;;;0.70;;
40150;SDS011;25866;52.420;10.640;2023-07-20T13:47:03;0.75;;;0.57;;
40150;SDS011;25866;52.420;10.640;2023-07-20T13:49:32;0.60;;;0.47;;
40150;SDS011;25866;52.420;10.640;2023-07-20T13:51:59;0.88;;;0.50;;
40150;SDS011;25866;52.420;10.640;2023-07-20T13:54:25;1.38;;;0.70;;
40150;SDS011;25866;52.420;10.640;2023-07-20T13:56:51;1.83;;;0.65;;
40150;SDS011;25866;52.420;10.640;2023-07-20T13:59:20;0.95;;;0.70;;
40150;SDS011;25866;52.420;10.640;2023-07-20T14:01:45;1.73;;;0.70;;
40150;SDS011;25866;52.420;10.640;2023-07-20T14:04:12;1.15;;;0.70;;
40150;SDS011;25866;52.420;10.640;2023-07-20T14:06:38;3.72;;;1.00;;
40150;SDS011;25866;52.420;10.640;2023-07-20T14:09:03;1.10;;;0.63;;
40150;SDS011;25866;52.420;10.640;2023-07-20T14:11:29;2.58;;;0.80;;
40150;SDS011;25866;52.420;10.640;2023-07-20T14:13:56;1.83;;;0.70;;
40150;SDS011;25866;52.420;10.640;2023-07-20T14:16:23;1.17;;;0.68;;
40150;SDS011;25866;52.420;10.640;2023-07-20T14:18:49;2.50;;;0.63;;
40150;SDS011;25866;52.420;10.640;2023-07-20T14:21:16;3.42;;;1.05;;
40150;SDS011;25866;52.420;10.640;2023-07-20T14:26:19;0.90;;;0.60;;
40150;SDS011;25866;52.420;10.640;2023-07-20T14:28:45;1.08;;;0.68;;
40150;SDS011;25866;52.420;10.640;2023-07-20T14:31:10;2.25;;;0.80;;
40150;SDS011;25866;52.420;10.640;2023-07-20T14:33:36;2.72;;;0.63;;
40150;SDS011;25866;52.420;10.640;2023-07-20T14:36:02;3.13;;;0.70;;
40150;SDS011;25866;52.420;10.640;2023-07-20T14:38:30;0.77;;;0.60;;
40150;SDS011;25866;52.420;10.640;2023-07-20T14:40:56;1.20;;;0.90;;
40150;SDS011;25866;52.420;10.640;2023-07-20T14:43:22;3.92;;;1.10;;
40150;SDS011;25866;52.420;10.640;2023-07-20T14:45:48;3.65;;;1.00;;
40150;SDS011;25866;52.420;10.640;2023-07-20T14:48:14;4.40;;;0.95;;
40150;SDS011;25866;52.420;10.640;2023-07-20T14:50:40;2.50;;;1.20;;
40150;SDS011;25866;52.420;10.640;2023-07-20T14:53:09;2.10;;;0.95;;
40150;SDS011;25866;52.420;10.640;2023-07-20T14:55:34;2.88;;;1.00;;
40150;SDS011;25866;52.420;10.640;2023-07-20T14:58:00;5.35;;;1.13;;
40150;SDS011;25866;52.420;10.640;2023-07-20T15:00:26;2.63;;;0.93;;
40150;SDS011;25866;52.420;10.640;2023-07-20T15:02:58;2.10;;;1.20;;
40150;SDS011;25866;52.420;10.640;2023-07-20T15:05:24;1.35;;;0.93;;
40150;SDS011;25866;52.420;10.640;2023-07-20T15:07:51;1.35;;;1.00;;
40150;SDS011;25866;52.420;10.640;2023-07-20T15:10:18;1.48;;;1.00;;
40150;SDS011;25866;52.420;10.640;2023-07-20T15:15:20;3.85;;;0.93;;
40150;SDS011;25866;52.420;10.640;2023-07-20T15:17:45;2.63;;;1.10;;